Time;durP1;ratioP1;P1;durP2;ratioP2;P2;SDS_P1;SDS_P2;PMS_P1;PMS_P2;Temp;Humidity;BMP_temperature;BMP_pressure;BME280_temperature;BME280_humidity;BME280_pressure;Samples;Min_cycle;Max_cycle;Signal;HPM_P1;HPM_P2
2022/04/09 00:02:22;;;;;;;25.02;11.68;;;;;;;5.34;73.09;98107.41;2170074;79;21177;-76
2022/04/09 00:05:27;;;;;;;21.05;13.40;;;;;;;5.37;73.27;98097.84;2178877;80;21103;-76
2022/04/09 00:08:33;;;;;;;25.02;15.32;;;;;;;5.43;73.25;98091.84;2177789;80;21070;-76
2022/04/09 00:11:43;;;;;;;22.13;14.40;;;;;;;5.46;73.28;98105.94;2178656;80;21065;-75
2022/04/09 00:14:43;;;;;;;23.52;13.13;;;;;;;5.46;73.29;98098.55;2172963;80;21094;-76
2022/04/09 00:17:48;;;;;;;19.87;12.25;;;;;;;5.45;73.33;98081.16;2179996;81;21228;-76
2022/04/09 00:20:53;;;;;;;22.80;12.98;;;;;;;5.45;73.41;98080.66;2173169;80;21042;-76
2022/04/09 00:23:57;;;;;;;22.00;13.20;;;;;;;5.49;73.44;98077.14;2171816;80;21069;-76
2022/04/09 00:27:05;;;;;;;18.52;11.60;;;;;;;5.48;73.46;98080.78;2173874;81;20980;-76
2022/04/09 00:30:10;;;;;;;25.45;14.05;;;;;;;5.49;73.46;98067.47;2173000;80;21018;-76
2022/04/09 00:33:15;;;;;;;29.20;15.23;;;;;;;5.50;73.47;98068.27;2171396;80;21064;-76
2022/04/09 00:36:24;;;;;;;23.42;13.68;;;;;;;5.48;73.43;98057.11;2171827;80;21082;-75
2022/04/09 00:39:27;;;;;;;23.83;14.33;;;;;;;5.50;73.42;98043.28;2176128;80;21046;-76
2022/04/09 00:42:34;;;;;;;24.25;14.95;;;;;;;5.46;73.43;98040.69;2178827;80;21007;-76
2022/04/09 00:45:41;;;;;;;22.65;13.85;;;;;;;5.37;73.45;98030.78;2173924;80;21644;-76
2022/04/09 00:48:46;;;;;;;20.88;13.15;;;;;;;5.27;73.65;98028.45;2176858;80;21103;-75
2022/04/09 00:51:51;;;;;;;19.32;11.90;;;;;;;5.23;73.87;98033.74;2176160;80;21561;-76
2022/04/09 00:54:55;;;;;;;16.12;11.33;;;;;;;5.21;73.91;98023.93;2172713;80;21055;-75
2022/04/09 00:58:00;;;;;;;18.92;11.75;;;;;;;5.24;73.94;98020.13;2176690;80;21072;-75
2022/04/09 01:01:09;;;;;;;19.87;11.25;;;;;;;5.12;73.90;98014.02;2178935;81;21086;-76
2022/04/09 01:04:12;;;;;;;18.07;11.60;;;;;;;5.13;74.11;98031.91;2193357;78;21058;-75
2022/04/09 01:07:18;;;;;;;18.77;12.00;;;;;;;5.12;74.13;98035.05;2194083;79;21116;-75
2022/04/09 01:10:24;;;;;;;19.40;11.33;;;;;;;5.17;74.22;98043.68;2194168;79;21072;-76
2022/04/09 01:13:30;;;;;;;17.15;10.75;;;;;;;5.21;74.24;98051.54;2197912;79;21049;-75
2022/04/09 01:16:32;;;;;;;17.30;11.25;;;;;;;5.23;74.32;98049.52;2163189;79;21078;-75
2022/04/09 01:19:40;;;;;;;19.50;11.45;;;;;;;5.27;74.38;98040.78;2193921;79;21065;-75
2022/04/09 01:22:42;;;;;;;18.50;12.00;;;;;;;5.27;74.34;98038.16;2192637;79;21085;-75
2022/04/09 01:25:44;;;;;;;22.13;11.90;;;;;;;5.28;74.41;98048.98;2165435;79;21066;-75
2022/04/09 01:28:48;;;;;;;19.90;11.45;;;;;;;5.31;74.45;98056.00;2193863;79;21560;-74
2022/04/09 01:31:52;;;;;;;19.60;11.80;;;;;;;5.31;74.58;98079.66;2189651;79;21047;-75
2022/04/09 01:35:00;;;;;;;19.92;12.13;;;;;;;5.29;74.63;98084.79;2187156;78;21072;-75
2022/04/09 01:38:03;;;;;;;18.82;12.30;;;;;;;5.28;74.73;98083.17;2188334;79;21564;-75
2022/04/09 01:41:09;;;;;;;22.22;13.05;;;;;;;5.24;74.80;98093.75;2193826;79;21035;-75
2022/04/09 01:44:14;;;;;;;23.45;14.33;;;;;;;5.23;74.96;98097.35;2195472;79;21050;-75
2022/04/09 01:47:18;;;;;;;18.73;12.80;;;;;;;5.22;75.07;98102.30;2200278;79;21086;-75
2022/04/09 01:50:27;;;;;;;19.32;13.13;;;;;;;5.19;75.13;98102.17;2192955;78;21582;-75
2022/04/09 01:53:31;;;;;;;20.82;13.18;;;;;;;5.14;75.27;98101.89;2197014;79;21038;-75
2022/04/09 01:56:34;;;;;;;22.80;14.23;;;;;;;5.09;75.36;98098.98;2194577;79;21065;-75
2022/04/09 01:59:41;;;;;;;22.70;14.35;;;;;;;5.06;75.57;98105.92;2187877;79;21062;-75
2022/04/09 02:02:48;;;;;;;19.05;13.20;;;;;;;5.02;75.84;98115.98;2196010;79;21082;-75
2022/04/09 02:05:53;;;;;;;16.02;11.30;;;;;;;4.97;75.90;98114.89;2188537;79;21045;-75
2022/04/09 02:09:02;;;;;;;21.25;13.48;;;;;;;4.84;75.77;98128.16;2189271;79;21573;-75
2022/04/09 02:12:07;;;;;;;17.40;11.80;;;;;;;4.77;76.17;98137.73;2185024;79;21030;-75
2022/04/09 02:15:13;;;;;;;11.48;7.17;;;;;;;4.70;76.41;98152.09;2193862;79;21100;-75
2022/04/09 02:18:15;;;;;;;8.08;4.15;;;;;;;4.61;75.81;98167.58;2189978;79;21590;-75
2022/04/09 02:21:21;;;;;;;8.25;4.25;;;;;;;4.52;75.41;98163.89;2192049;79;20999;-75
2022/04/09 02:24:26;;;;;;;6.10;3.70;;;;;;;4.44;75.49;98164.75;2192703;79;21058;-75
2022/04/09 02:27:34;;;;;;;4.65;3.35;;;;;;;4.35;75.60;98159.25;2192915;79;21127;-75
2022/04/09 02:30:41;;;;;;;5.87;3.98;;;;;;;4.27;75.57;98174.05;2193841;79;21066;-75
2022/04/09 02:33:49;;;;;;;6.50;3.65;;;;;;;4.23;75.63;98182.47;2189929;79;21611;-75
2022/04/09 02:36:55;;;;;;;7.12;3.85;;;;;;;4.16;75.51;98182.82;2191200;79;21093;-75
2022/04/09 02:40:02;;;;;;;7.62;4.08;;;;;;;4.09;75.59;98181.89;2195285;79;21101;-75
2022/04/09 02:43:06;;;;;;;8.75;4.62;;;;;;;4.03;75.67;98172.90;2193562;79;21067;-75
2022/04/09 02:46:17;;;;;;;5.97;4.50;;;;;;;3.98;75.85;98183.91;2195678;79;21074;-75
2022/04/09 02:49:23;;;;;;;5.42;4.30;;;;;;;3.95;75.97;98193.43;2192687;79;21034;-75
2022/04/09 02:52:27;;;;;;;8.45;4.55;;;;;;;3.95;76.29;98184.25;2189598;79;21356;-75
2022/04/09 02:55:34;;;;;;;6.75;4.55;;;;;;;3.87;76.13;98181.66;2187138;79;21059;-74
2022/04/09 02:58:38;;;;;;;7.70;4.30;;;;;;;3.73;76.06;98180.57;2195032;79;21066;-75
2022/04/09 03:01:46;;;;;;;6.12;4.90;;;;;;;3.63;76.27;98198.30;2165150;79;21019;-76
2022/04/09 03:04:51;;;;;;;5.35;4.37;;;;;;;3.54;76.35;98201.45;2190402;79;21069;-75
2022/04/09 03:07:57;;;;;;;8.98;4.90;;;;;;;3.45;76.33;98196.41;2192362;79;21105;-75
2022/04/09 03:10:59;;;;;;;6.33;4.72;;;;;;;3.40;76.54;98198.20;2162066;81;21109;-75
2022/04/09 03:14:09;;;;;;;8.30;5.35;;;;;;;3.32;76.88;98205.62;2192547;79;21030;-75
2022/04/09 03:17:13;;;;;;;7.53;5.22;;;;;;;3.24;76.80;98217.89;2194488;81;21101;-75
2022/04/09 03:20:18;;;;;;;8.75;5.92;;;;;;;3.17;76.89;98218.25;2194489;79;21089;-75
2022/04/09 03:23:25;;;;;;;8.38;5.60;;;;;;;3.10;77.11;98214.98;2187117;79;21091;-74
2022/04/09 03:26:27;;;;;;;7.15;5.83;;;;;;;3.05;77.08;98218.59;2184696;79;21146;-75
2022/04/09 03:29:35;;;;;;;10.63;6.37;;;;;;;3.02;77.09;98237.77;2191849;79;21082;-75
2022/04/09 03:32:40;;;;;;;8.30;6.37;;;;;;;3.00;77.38;98236.60;2190942;79;21989;-75
2022/04/09 03:35:47;;;;;;;8.63;5.58;;;;;;;2.99;77.44;98243.33;2192560;79;21139;-75
2022/04/09 03:38:52;;;;;;;10.43;6.25;;;;;;;2.95;77.72;98245.94;2191607;79;21073;-75
2022/04/09 03:41:56;;;;;;;9.00;6.42;;;;;;;2.94;77.62;98251.67;2196956;79;21074;-75
2022/04/09 03:45:01;;;;;;;8.73;6.10;;;;;;;2.95;77.74;98253.30;2192616;81;21055;-75
2022/04/09 03:48:07;;;;;;;8.88;7.12;;;;;;;2.96;77.84;98254.11;2191790;79;21058;-75
2022/04/09 03:51:13;;;;;;;10.72;7.30;;;;;;;2.99;77.90;98255.13;2193543;79;21054;-75
2022/04/09 03:54:19;;;;;;;9.70;7.12;;;;;;;2.99;78.26;98254.63;2185992;79;21068;-74
2022/04/09 03:57:23;;;;;;;9.88;7.53;;;;;;;3.00;78.07;98265.92;2194976;79;21567;-75
2022/04/09 04:00:31;;;;;;;9.93;6.10;;;;;;;3.03;78.33;98265.09;2191222;79;21737;-75
2022/04/09 04:03:38;;;;;;;9.53;6.35;;;;;;;3.04;78.63;98261.98;2188591;79;21069;-75
2022/04/09 04:06:43;;;;;;;8.53;7.05;;;;;;;3.03;79.45;98274.27;2173342;81;21059;-75
2022/04/09 04:09:51;;;;;;;10.20;6.92;;;;;;;3.04;78.96;98275.92;2144669;81;21588;-75
2022/04/09 04:12:54;;;;;;;8.45;6.45;;;;;;;3.05;78.95;98291.96;2173159;79;21072;-75
2022/04/09 04:16:03;;;;;;;9.45;6.28;;;;;;;3.05;79.03;98296.39;2173784;79;21869;-75
2022/04/09 04:19:06;;;;;;;9.88;6.25;;;;;;;3.03;79.23;98297.03;2177958;81;21392;-76
2022/04/09 04:22:12;;;;;;;9.18;5.58;;;;;;;3.00;79.25;98308.66;2152664;81;21707;-75
2022/04/09 04:25:17;;;;;;;10.18;5.75;;;;;;;2.98;79.31;98313.73;2169074;79;21114;-75
2022/04/09 04:28:23;;;;;;;7.45;5.50;;;;;;;2.95;79.54;98318.80;2175988;79;21532;-75
2022/04/09 04:31:27;;;;;;;10.23;6.00;;;;;;;2.94;79.14;98327.66;2174306;81;21048;-75
2022/04/09 04:34:31;;;;;;;10.10;6.03;;;;;;;2.93;79.48;98329.95;2176978;79;21417;-75
2022/04/09 04:37:44;;;;;;;7.33;6.20;;;;;;;2.91;79.52;98332.72;2173928;79;21009;-74
2022/04/09 04:40:51;;;;;;;10.40;6.22;;;;;;;2.91;79.28;98333.22;2175095;79;21066;-75
2022/04/09 04:43:55;;;;;;;12.85;6.80;;;;;;;2.92;79.75;98329.60;2179981;79;21042;-75
2022/04/09 04:47:03;;;;;;;13.90;6.75;;;;;;;2.92;79.36;98329.11;2173991;79;21112;-75
2022/04/09 04:50:10;;;;;;;8.73;6.87;;;;;;;2.96;79.34;98330.09;2177230;79;21034;-75
2022/04/09 04:53:17;;;;;;;10.82;6.35;;;;;;;2.99;79.39;98328.48;2169240;79;21052;-75
2022/04/09 04:56:27;;;;;;;11.40;6.55;;;;;;;3.00;79.34;98327.00;2172568;79;21070;-75
2022/04/09 04:59:34;;;;;;;9.83;6.53;;;;;;;3.03;79.40;98324.05;2180968;79;21050;-74
2022/04/09 05:02:40;;;;;;;13.08;7.50;;;;;;;3.10;79.47;98338.16;2173749;79;21466;-75
2022/04/09 05:05:44;;;;;;;8.73;6.35;;;;;;;3.12;79.34;98327.00;2165303;81;21589;-75
2022/04/09 05:08:49;;;;;;;8.85;6.35;;;;;;;3.17;79.42;98329.64;2165491;80;21149;-73
2022/04/09 05:11:55;;;;;;;13.28;7.35;;;;;;;3.22;79.37;98336.03;2166825;79;21030;-73
2022/04/09 05:15:01;;;;;;;8.08;6.08;;;;;;;3.26;79.32;98348.31;2162304;81;21023;-75
2022/04/09 05:18:03;;;;;;;12.75;7.50;;;;;;;3.31;79.37;98346.84;2161817;81;20980;-74
2022/04/09 05:21:07;;;;;;;10.75;6.70;;;;;;;3.34;79.31;98341.27;2146645;79;21382;-75
2022/04/09 05:24:13;;;;;;;8.45;5.70;;;;;;;3.39;79.45;98359.14;2152217;81;21051;-76
2022/04/09 05:27:19;;;;;;;13.70;6.58;;;;;;;3.43;79.36;98363.06;2166521;79;21082;-75
2022/04/09 05:30:24;;;;;;;11.85;7.40;;;;;;;3.46;79.22;98367.97;2167021;79;21045;-75
2022/04/09 05:33:29;;;;;;;11.40;7.72;;;;;;;3.53;79.34;98370.28;2160054;81;21117;-75
2022/04/09 05:36:40;;;;;;;10.03;7.15;;;;;;;3.57;79.33;98372.89;2151234;81;21055;-75
2022/04/09 05:39:47;;;;;;;14.28;7.70;;;;;;;3.61;79.13;98389.63;2162018;81;21066;-75
2022/04/09 05:42:49;;;;;;;9.95;7.35;;;;;;;3.63;79.12;98395.52;2146704;81;21595;-75
2022/04/09 05:45:51;;;;;;;13.13;7.28;;;;;;;3.63;79.13;98402.06;2161318;81;21051;-75
2022/04/09 05:48:58;;;;;;;17.42;7.97;;;;;;;3.64;79.26;98402.41;2163765;81;21502;-75
2022/04/09 05:52:07;;;;;;;13.45;8.15;;;;;;;3.66;79.16;98422.72;2163797;81;21015;-76
2022/04/09 05:55:10;;;;;;;10.48;7.25;;;;;;;3.67;79.23;98427.81;2160475;79;21961;-75
2022/04/09 05:58:14;;;;;;;11.33;7.08;;;;;;;3.67;79.17;98438.31;2161161;81;21050;-73
2022/04/09 06:01:18;;;;;;;13.83;8.20;;;;;;;3.69;79.29;98448.16;2166988;79;21019;-75
2022/04/09 06:04:24;;;;;;;13.10;8.58;;;;;;;3.71;79.22;98446.16;2175742;79;21078;-74
2022/04/09 06:07:32;;;;;;;14.98;8.50;;;;;;;3.73;79.50;98455.20;2194613;79;21563;-75
2022/04/09 06:10:38;;;;;;;12.93;8.50;;;;;;;3.77;79.37;98460.44;2197778;78;21117;-74
2022/04/09 06:13:42;;;;;;;15.83;8.33;;;;;;;3.82;79.66;98475.20;2198610;78;21053;-74
2022/04/09 06:16:46;;;;;;;14.00;8.85;;;;;;;3.90;79.62;98482.26;2197913;78;21006;-74
2022/04/09 06:19:53;;;;;;;12.37;7.95;;;;;;;3.98;79.49;98497.52;2192468;79;21051;-75
2022/04/09 06:22:59;;;;;;;15.23;8.40;;;;;;;4.09;79.82;98499.49;2192980;78;21011;-73
2022/04/09 06:26:03;;;;;;;16.73;8.73;;;;;;;4.16;79.68;98496.02;2196953;78;21074;-74
2022/04/09 06:29:07;;;;;;;17.02;9.03;;;;;;;4.23;79.63;98510.64;2195167;78;21119;-72
2022/04/09 06:32:10;;;;;;;10.95;7.55;;;;;;;4.27;79.45;98515.37;2169329;79;21683;-74
2022/04/09 06:35:15;;;;;;;11.05;6.87;;;;;;;4.30;79.13;98519.48;2189300;79;21109;-73
2022/04/09 06:38:19;;;;;;;11.12;7.70;;;;;;;4.30;79.25;98531.30;2188030;78;21085;-74
2022/04/09 06:41:28;;;;;;;10.45;7.37;;;;;;;4.33;79.34;98536.21;2193453;79;21650;-72
2022/04/09 06:44:32;;;;;;;12.90;7.97;;;;;;;4.36;79.24;98552.95;2193382;78;21052;-72
2022/04/09 06:47:42;;;;;;;12.23;7.87;;;;;;;4.39;79.11;98557.89;2186424;79;21100;-72
2022/04/09 06:50:46;;;;;;;12.53;8.30;;;;;;;4.41;79.17;98568.22;2192725;79;21021;-74
2022/04/09 06:53:51;;;;;;;13.25;8.43;;;;;;;4.43;78.99;98584.64;2189592;79;21066;-76
2022/04/09 06:56:54;;;;;;;12.80;7.60;;;;;;;4.45;78.92;98587.44;2186918;79;21083;-72
2022/04/09 06:59:59;;;;;;;11.78;6.90;;;;;;;4.52;79.08;98596.78;2190329;79;22220;-70
2022/04/09 07:03:17;;;;;;;13.03;6.85;;;;;;;4.58;78.73;98604.48;2162259;79;21003;-71
2022/04/09 07:06:17;;;;;;;10.93;6.72;;;;;;;4.62;78.71;98610.58;2196225;79;21062;-72
2022/04/09 07:09:23;;;;;;;12.50;6.83;;;;;;;4.65;78.40;98628.63;2199543;79;21103;-70
2022/04/09 07:12:28;;;;;;;10.95;6.70;;;;;;;4.69;78.33;98638.31;2198086;79;21001;-70
2022/04/09 07:15:30;;;;;;;11.95;6.20;;;;;;;4.74;78.36;98647.84;2204900;79;21030;-72
2022/04/09 07:18:32;;;;;;;15.60;6.80;;;;;;;4.82;78.32;98641.27;2200655;78;21027;-73
2022/04/09 07:21:37;;;;;;;9.83;5.80;;;;;;;4.90;78.09;98655.72;2203279;79;21512;-71
2022/04/09 07:24:39;;;;;;;11.68;5.58;;;;;;;5.01;78.07;98667.70;2203380;79;21058;-74
2022/04/09 07:27:43;;;;;;;9.88;5.97;;;;;;;5.10;77.76;98681.66;2198951;79;21073;-74
2022/04/09 07:30:45;;;;;;;12.35;5.47;;;;;;;5.19;77.62;98691.16;2202852;79;21125;-74
2022/04/09 07:33:47;;;;;;;13.32;5.15;;;;;;;5.31;77.41;98695.08;2203825;79;21493;-76
2022/04/09 07:36:49;;;;;;;10.15;5.40;;;;;;;5.45;77.24;98700.64;2204904;79;21042;-75
2022/04/09 07:39:51;;;;;;;10.23;5.28;;;;;;;5.60;77.02;98698.47;2202440;79;21021;-76
2022/04/09 07:42:59;;;;;;;23.62;9.68;;;;;;;5.70;76.72;98698.77;2200869;79;21072;-74
2022/04/09 07:46:04;;;;;;;17.92;7.53;;;;;;;5.78;76.71;98708.77;2204799;79;21093;-76
2022/04/09 07:49:06;;;;;;;14.47;6.12;;;;;;;5.90;76.11;98713.66;2201971;79;22242;-75
2022/04/09 07:52:08;;;;;;;14.80;6.03;;;;;;;5.93;76.00;98723.38;2205955;79;21078;-77
2022/04/09 07:55:14;;;;;;;14.83;4.92;;;;;;;5.98;75.95;98721.05;2199527;79;21030;-77
2022/04/09 07:58:20;;;;;;;11.97;5.35;;;;;;;6.03;75.33;98724.50;2203312;79;21023;-69
2022/04/09 08:01:21;;;;;;;16.45;6.25;;;;;;;6.12;74.80;98733.18;2203927;78;21046;-82
2022/04/09 08:04:27;;;;;;;11.83;5.95;;;;;;;6.20;74.79;98726.56;2198574;79;21075;-77
2022/04/09 08:07:30;;;;;;;11.88;5.40;;;;;;;6.53;75.32;98744.30;2190615;79;21632;-75
2022/04/09 08:10:34;;;;;;;10.78;5.70;;;;;;;6.96;74.48;98748.63;2195329;80;21053;-79
2022/04/09 08:13:41;;;;;;;17.65;6.05;;;;;;;7.17;72.99;98755.36;2192107;79;21032;-77
2022/04/09 08:16:44;;;;;;;9.50;5.83;;;;;;;7.13;72.79;98758.55;2188678;79;22201;-83
2022/04/09 08:19:52;;;;;;;8.65;4.17;;;;;;;7.00;73.06;98768.37;2196827;79;21053;-79
2022/04/09 08:22:54;;;;;;;8.00;3.50;;;;;;;6.81;71.88;98783.34;2190058;79;21028;-76
2022/04/09 08:25:56;;;;;;;12.35;3.55;;;;;;;6.63;71.93;98788.39;2193345;80;21125;-75
2022/04/09 08:28:57;;;;;;;8.33;3.15;;;;;;;6.44;70.25;98797.55;2197354;79;21023;-77
2022/04/09 08:32:01;;;;;;;8.90;3.25;;;;;;;6.28;70.57;98798.45;2190729;79;21018;-76
2022/04/09 08:35:04;;;;;;;9.28;3.75;;;;;;;6.39;68.95;98797.73;2192061;80;21000;-74
2022/04/09 08:38:09;;;;;;;7.42;2.62;;;;;;;6.71;69.30;98791.48;2194675;79;21035;-73
2022/04/09 08:41:15;;;;;;;6.08;3.00;;;;;;;6.89;68.08;98780.64;2186203;79;21056;-73
2022/04/09 08:44:18;;;;;;;6.37;2.85;;;;;;;7.21;68.91;98790.14;2186523;79;21592;-73
2022/04/09 08:47:20;;;;;;;8.45;3.15;;;;;;;7.17;68.45;98791.48;2189168;80;21085;-73
2022/04/09 08:50:24;;;;;;;5.65;3.35;;;;;;;7.17;68.00;98801.53;2187870;79;20987;-72
2022/04/09 08:53:28;;;;;;;9.80;3.87;;;;;;;7.09;67.61;98816.59;2189453;80;21067;-74
2022/04/09 08:56:37;;;;;;;8.40;2.95;;;;;;;6.91;67.89;98815.08;2191324;79;20997;-74
2022/04/09 08:59:35;;;;;;;10.68;4.70;;;;;;;6.87;67.94;98828.77;2187545;79;21027;-72
2022/04/09 09:02:37;;;;;;;12.20;3.55;;;;;;;7.30;67.23;98835.75;2189655;79;21060;-73
2022/04/09 09:05:52;;;;;;;7.25;2.55;;;;;;;7.78;66.39;98840.28;2192153;79;21090;-74
2022/04/09 09:08:55;;;;;;;9.80;3.12;;;;;;;7.75;65.45;98842.78;2189279;79;21083;-74
2022/04/09 09:12:00;;;;;;;5.17;3.25;;;;;;;7.81;66.81;98842.56;2190008;79;21007;-72
2022/04/09 09:15:04;;;;;;;7.83;3.85;;;;;;;7.91;65.11;98849.70;2194429;79;21463;-74
2022/04/09 09:18:56;;;;;;;7.35;3.35;;;;;;;7.71;65.76;98860.47;2189428;79;21363;-73
2022/04/09 09:22:05;;;;;;;9.65;3.20;;;;;;;7.39;64.67;98870.30;2084706;79;21116;-74
2022/04/09 09:25:09;;;;;;;7.17;2.70;;;;;;;7.13;65.26;98892.58;2164317;79;21064;-73
2022/04/09 09:28:13;;;;;;;7.85;2.52;;;;;;;6.98;64.05;98896.13;2190860;79;21050;-74
2022/04/09 09:31:15;;;;;;;3.25;1.90;;;;;;;7.07;63.52;98910.42;2188633;79;21529;-73
2022/04/09 09:34:19;;;;;;;5.37;2.60;;;;;;;7.43;61.52;98906.39;2192733;79;21024;-73
2022/04/09 09:37:24;;;;;;;4.78;2.10;;;;;;;7.60;60.82;98904.80;2188585;79;21018;-73
2022/04/09 09:40:32;;;;;;;13.78;3.27;;;;;;;7.73;60.98;98912.61;2191847;79;21015;-72
2022/04/09 09:43:37;;;;;;;6.10;2.80;;;;;;;7.75;60.60;98917.22;2191824;79;21030;-75
2022/04/09 09:46:39;;;;;;;6.87;2.00;;;;;;;7.70;60.62;98916.92;2194410;79;21024;-75
2022/04/09 09:49:53;;;;;;;4.60;2.33;;;;;;;7.70;59.08;98921.70;2188359;79;21008;-76
2022/04/09 09:53:04;;;;;;;7.53;2.60;;;;;;;7.61;58.69;98915.67;2191153;79;21027;-74
2022/04/09 09:56:06;;;;;;;;;;;;;;;7.73;60.27;98926.63;2195287;79;21496;-75
2022/04/09 09:59:13;;;;;;;6.92;2.62;;;;;;;7.75;59.48;98937.02;2189814;79;20156;-75
2022/04/09 10:02:23;;;;;;;5.03;2.02;;;;;;;7.76;59.55;98924.13;2191476;79;21007;-74
2022/04/09 10:05:26;;;;;;;5.58;2.05;;;;;;;7.74;58.55;98940.17;2188598;79;21043;-76
2022/04/09 10:08:27;;;;;;;4.08;1.60;;;;;;;7.71;57.20;98940.50;2176978;80;21043;-74
2022/04/09 10:11:30;;;;;;;5.22;1.60;;;;;;;7.64;55.44;98952.27;2180144;80;21058;-74
2022/04/09 10:14:35;;;;;;;4.22;1.75;;;;;;;7.67;56.18;98964.80;2180907;80;21064;-75
2022/04/09 10:17:39;;;;;;;6.03;2.80;;;;;;;7.89;56.91;98963.97;2182032;80;21060;-73
2022/04/09 10:20:47;;;;;;;7.05;1.87;;;;;;;8.21;56.56;98967.33;2183875;80;21066;-72
2022/04/09 10:23:55;;;;;;;4.78;1.80;;;;;;;8.27;56.44;98981.14;2178099;80;21050;-74
2022/04/09 10:26:59;;;;;;;3.77;1.42;;;;;;;8.22;55.18;98988.78;2161411;80;21531;-74
2022/04/09 10:30:03;;;;;;;8.48;2.37;;;;;;;8.22;56.30;98985.66;2181964;80;21017;-75
2022/04/09 10:33:23;;;;;;;4.40;2.20;;;;;;;8.30;55.36;98998.77;2188397;79;21010;-75
2022/04/09 10:36:47;;;;;;;4.03;1.63;;;;;;;8.24;55.88;99010.06;2169909;80;20945;-74
2022/04/09 10:39:55;;;;;;;5.03;2.47;;;;;;;7.93;54.93;98980.28;2159538;80;21464;-77
2022/04/09 10:43:01;;;;;;;7.15;2.02;;;;;;;8.19;56.55;99018.20;2178131;80;21064;-77
2022/04/09 10:46:15;;;;;;;8.00;2.85;;;;;;;8.41;55.95;99019.20;2184405;80;21108;-77
2022/04/09 10:49:21;;;;;;;4.90;2.30;;;;;;;8.80;55.66;99013.69;2186931;80;21052;-77
2022/04/09 10:52:25;;;;;;;6.15;2.87;;;;;;;9.11;56.27;99022.75;2201254;78;21080;-77
2022/04/09 10:55:31;;;;;;;6.83;2.35;;;;;;;9.18;55.73;99030.80;2168726;80;21083;-77
2022/04/09 10:58:56;;;;;;;5.75;2.75;;;;;;;9.17;55.17;99030.46;2210541;78;21777;-77
2022/04/09 11:01:57;;;;;;;5.92;2.30;;;;;;;8.87;54.62;99023.02;2171298;80;21052;-77
2022/04/09 11:05:23;;;;;;;6.37;3.08;;;;;;;8.70;54.17;99032.95;2181917;80;21097;-77
2022/04/09 11:08:27;;;;;;;6.28;2.52;;;;;;;9.03;54.63;99029.97;2186456;81;20967;-77
2022/04/09 11:11:37;;;;;;;6.05;2.20;;;;;;;9.48;53.20;99028.09;2190631;79;21078;-77
2022/04/09 11:14:50;;;;;;;8.83;4.65;;;;;;;9.53;51.80;99034.98;2192070;79;21100;-77
2022/04/09 11:18:04;;;;;;;4.90;2.75;;;;;;;9.41;51.49;99040.75;2191864;79;21054;-77
2022/04/09 11:21:09;;;;;;;4.62;2.70;;;;;;;9.56;51.77;99043.87;2189138;81;21038;-77
2022/04/09 11:24:11;;;;;;;7.17;2.85;;;;;;;9.77;52.32;99041.27;2189638;79;21041;-76
2022/04/09 11:27:13;;;;;;;6.05;3.17;;;;;;;9.95;51.15;99036.03;2188548;79;21560;-77
2022/04/09 11:30:15;;;;;;;3.80;2.62;;;;;;;10.10;52.35;99041.56;2189388;81;20972;-77
2022/04/09 11:33:17;;;;;;;4.58;2.27;;;;;;;10.59;52.75;99033.83;2187819;81;21047;-73
2022/04/09 11:36:23;;;;;;;4.12;2.40;;;;;;;10.95;50.49;99029.68;2191254;80;21046;-75
2022/04/09 11:39:25;;;;;;;7.22;3.85;;;;;;;11.12;50.64;99030.18;2192083;79;21046;-79
2022/04/09 11:42:26;;;;;;;6.05;2.52;;;;;;;10.94;48.49;99018.25;2193742;79;21061;-83
2022/04/09 11:45:31;;;;;;;3.62;2.40;;;;;;;10.46;48.54;99021.31;2191171;79;22147;-80
2022/04/09 11:48:35;;;;;;;5.65;2.12;;;;;;;10.46;48.54;99021.31;2192718;79;21497;-75
2022/04/09 11:51:36;;;;;;;4.65;2.30;;;;;;;10.13;48.35;99046.19;2188406;79;21002;-74
2022/04/09 11:54:39;;;;;;;3.58;1.72;;;;;;;9.69;47.86;99053.30;2184996;79;21030;-79
2022/04/09 11:57:51;;;;;;;4.37;2.05;;;;;;;9.28;47.98;99056.46;2189524;79;21074;-78
2022/04/09 12:00:53;;;;;;;5.58;2.08;;;;;;;8.96;49.25;99059.81;2189267;79;20998;-75
2022/04/09 12:03:54;;;;;;;5.10;2.17;;;;;;;8.88;49.66;99069.16;2193950;80;21021;-77
2022/04/09 12:06:56;;;;;;;4.08;2.10;;;;;;;9.20;51.04;99082.52;2191563;79;21108;-79
2022/04/09 12:10:00;;;;;;;6.45;2.50;;;;;;;9.46;50.54;99081.72;2184339;79;21044;-76
2022/04/09 12:13:06;;;;;;;8.25;3.00;;;;;;;9.73;51.46;99082.36;2190060;79;21100;-81
2022/04/09 12:16:19;;;;;;;7.28;2.52;;;;;;;9.99;51.50;99081.01;2193557;79;21011;-75
2022/04/09 12:19:32;;;;;;;5.60;2.05;;;;;;;10.25;50.86;99083.12;2191075;79;21032;-72
2022/04/09 12:22:35;;;;;;;5.90;2.00;;;;;;;10.37;50.75;99085.59;2190608;79;21025;-74
2022/04/09 12:25:44;;;;;;;4.30;1.77;;;;;;;10.35;50.27;99086.80;2162783;79;21062;-72
2022/04/09 12:28:45;;;;;;;7.12;2.20;;;;;;;10.47;49.83;99094.55;2190356;79;21521;-78
2022/04/09 12:31:50;;;;;;;3.75;2.02;;;;;;;10.14;49.68;99092.39;2190146;79;21727;-79
2022/04/09 12:34:59;;;;;;;3.58;2.17;;;;;;;9.85;49.57;99094.14;2197389;78;21042;-81
2022/04/09 12:38:03;;;;;;;5.20;2.45;;;;;;;9.68;49.50;99095.84;2192728;78;21565;-76
2022/04/09 12:41:07;;;;;;;3.60;1.65;;;;;;;9.47;49.34;99097.95;2191396;78;21058;-78
2022/04/09 12:44:31;;;;;;;7.33;2.05;;;;;;;9.19;49.10;99101.24;2192315;79;21059;-75
2022/04/09 12:47:32;;;;;;;7.15;3.02;;;;;;;8.89;49.54;99103.85;2190584;79;21078;-75
2022/04/09 12:50:36;;;;;;;8.83;2.12;;;;;;;8.68;51.08;99108.52;2190615;79;21592;-79
2022/04/09 12:53:38;;;;;;;4.10;1.70;;;;;;;8.58;51.47;99123.80;2187991;79;21002;-77
2022/04/09 12:56:41;;;;;;;6.12;1.85;;;;;;;8.47;51.82;99121.08;2189730;79;21050;-78
2022/04/09 12:59:42;;;;;;;16.77;8.53;;;;;;;8.52;52.16;99120.05;2191819;79;21023;-78
2022/04/09 13:02:48;;;;;;;9.65;4.15;;;;;;;8.75;52.54;99119.20;2193287;79;21082;-78
2022/04/09 13:05:50;;;;;;;4.53;2.22;;;;;;;9.03;52.79;99126.04;2207951;79;21041;-78
2022/04/09 13:08:52;;;;;;;4.85;2.20;;;;;;;9.08;52.50;99130.80;2208408;79;21030;-75
2022/04/09 13:11:54;;;;;;;5.67;1.92;;;;;;;8.83;53.20;99132.86;2211314;79;21044;-77
2022/04/09 13:14:56;;;;;;;3.80;1.90;;;;;;;8.89;54.18;99131.63;2218485;78;21133;-76
2022/04/09 13:17:57;;;;;;;3.62;1.65;;;;;;;9.14;54.23;99129.56;2204711;79;21042;-76
2022/04/09 13:20:59;;;;;;;2.77;1.52;;;;;;;9.28;53.42;99109.41;2210825;79;21023;-75
2022/04/09 13:24:07;;;;;;;4.58;1.42;;;;;;;9.35;53.49;99110.83;2210489;79;20995;-76
2022/04/09 13:27:09;;;;;;;2.87;1.37;;;;;;;9.50;52.11;99110.81;2213602;79;21497;-76
2022/04/09 13:30:14;;;;;;;3.10;1.70;;;;;;;9.48;52.12;99120.77;2213177;79;21005;-76
2022/04/09 13:33:16;;;;;;;3.17;1.62;;;;;;;9.55;52.71;99119.85;2184519;79;20958;-76
2022/04/09 13:36:18;;;;;;;4.97;2.30;;;;;;;9.61;52.12;99128.38;2210513;79;21081;-75
2022/04/09 13:39:22;;;;;;;2.92;1.72;;;;;;;9.60;52.85;99124.58;2211814;79;21505;-75
2022/04/09 13:42:24;;;;;;;3.20;1.60;;;;;;;9.75;52.13;99125.39;2208791;79;21035;-75
2022/04/09 13:45:26;;;;;;;3.10;1.55;;;;;;;9.64;51.44;99128.00;2203853;79;21014;-75
2022/04/09 13:48:27;;;;;;;2.25;1.62;;;;;;;9.54;50.76;99127.45;2210315;79;21429;-74
2022/04/09 13:51:31;;;;;;;4.75;2.02;;;;;;;9.23;50.10;99131.63;2209964;79;21007;-73
2022/04/09 13:54:33;;;;;;;2.83;1.75;;;;;;;8.96;50.94;99139.19;2211515;79;21132;-74
2022/04/09 13:57:35;;;;;;;5.37;2.00;;;;;;;8.62;52.56;99149.41;2211309;79;21372;-74
2022/04/09 14:00:37;;;;;;;2.87;1.60;;;;;;;8.52;52.79;99149.13;2208827;79;20999;-75
2022/04/09 14:03:43;;;;;;;3.00;1.47;;;;;;;8.71;50.82;99149.16;2212816;79;21069;-74
2022/04/09 14:06:45;;;;;;;2.83;1.10;;;;;;;8.93;50.67;99155.92;2207790;79;21035;-74
2022/04/09 14:09:47;;;;;;;2.98;1.80;;;;;;;9.06;50.59;99146.03;2210562;79;21605;-74
2022/04/09 14:12:52;;;;;;;4.78;1.30;;;;;;;9.12;51.42;99146.15;2210352;79;21500;-74
2022/04/09 14:16:02;;;;;;;4.78;2.15;;;;;;;9.21;48.77;99142.91;2213459;79;21393;-74
2022/04/09 14:19:09;;;;;;;7.80;3.50;;;;;;;9.15;50.49;99149.75;2210556;79;21039;-74
2022/04/09 14:22:11;;;;;;;5.85;2.92;;;;;;;9.17;50.31;99152.20;2209835;79;21063;-73
2022/04/09 14:25:13;;;;;;;4.20;2.08;;;;;;;9.22;50.50;99145.88;2210449;79;21050;-73
2022/04/09 14:28:26;;;;;;;12.40;5.28;;;;;;;9.19;50.21;99149.70;2208126;79;21057;-71
2022/04/09 14:31:30;;;;;;;13.43;5.92;;;;;;;9.21;49.11;99152.17;2212158;79;21383;-74
2022/04/09 14:34:32;;;;;;;8.90;4.37;;;;;;;9.22;49.69;99149.84;2212448;79;21056;-74
2022/04/09 14:37:38;;;;;;;5.12;2.70;;;;;;;9.30;50.59;99148.94;2202584;79;21042;-77